Time;durP1;ratioP1;P1;durP2;ratioP2;P2;SDS_P1;SDS_P2;PMS_P1;PMS_P2;Temp;Humidity;BMP_temperature;BMP_pressure;BME280_temperature;BME280_humidity;BME280_pressure;Samples;Min_cycle;Max_cycle;Signal;HPM_P1;HPM_P2
2022/05/27 00:00:44;;;;;;;;;;;;;;;16.57;60.73;93333.03;2063831;69;20050;-70
2022/05/27 00:03:10;;;;;;;;;;;;;;;16.52;61.06;93337.78;2063783;69;20474;-71
2022/05/27 00:09:03;;;;;;;;;;;;;;;16.34;61.69;93334.03;2063815;69;20123;-73
2022/05/27 00:14:57;;;;;;;;;;;;;;;16.49;60.41;93330.53;2064289;69;20110;-71
2022/05/27 00:17:23;;;;;;;;;;;;;;;16.32;61.96;93326.16;2064387;69;20057;-72
2022/05/27 00:19:48;;;;;;;;;;;;;;;16.29;61.15;93327.44;2061336;69;20104;-75
2022/05/27 00:22:14;;;;;;;;;;;;;;;16.29;60.85;93321.75;2055752;69;20049;-73
2022/05/27 00:24:39;;;;;;;;;;;;;;;16.28;60.94;93311.75;2055514;70;20094;-72
2022/05/27 00:27:08;;;;;;;;;;;;;;;16.35;60.19;93313.50;2055731;70;20081;-71
2022/05/27 00:29:34;;;;;;;;;;;;;;;16.17;60.92;93313.38;2055537;69;20486;-71
2022/05/27 00:31:59;;;;;;;;;;;;;;;16.28;60.44;93308.91;2055796;70;20185;-71
2022/05/27 00:34:25;;;;;;;;;;;;;;;16.15;61.62;93312.53;2065859;69;20068;-72
2022/05/27 00:36:50;;;;;;;;;;;;;;;16.20;60.55;93319.88;2055876;70;20050;-73
2022/05/27 00:39:15;;;;;;;;;;;;;;;16.01;62.44;93315.38;2055359;70;20101;-72
2022/05/27 00:41:41;;;;;;;;;;;;;;;16.09;61.18;93315.78;2068306;69;20386;-72
2022/05/27 00:44:07;;;;;;;;;;;;;;;16.08;61.47;93305.81;2055209;70;20046;-75
2022/05/27 00:46:33;;;;;;;;;;;;;;;15.96;61.87;93294.56;2055467;70;20123;-72
2022/05/27 00:49:19;;;;;;;;;;;;;;;16.08;61.48;93291.63;2055451;69;20062;-72
2022/05/27 00:51:48;;;;;;;;;;;;;;;16.05;62.28;93292.13;2055870;69;20065;-72
2022/05/27 00:54:16;;;;;;;;;;;;;;;15.81;62.96;93294.50;2055313;70;20054;-71
2022/05/27 00:56:45;;;;;;;;;;;;;;;15.46;64.09;93284.91;2055303;70;20089;-72
2022/05/27 00:59:17;;;;;;;;;;;;;;;15.85;61.91;93292.59;2055518;69;20057;-72
2022/05/27 01:01:42;;;;;;;;;;;;;;;15.81;62.56;93285.97;2055545;70;20176;-72
2022/05/27 01:04:08;;;;;;;;;;;;;;;15.68;62.29;93278.94;2055040;70;20209;-74
2022/05/27 01:06:34;;;;;;;;;;;;;;;15.74;61.88;93282.06;2068225;69;20090;-70
2022/05/27 01:08:59;;;;;;;;;;;;;;;15.76;62.20;93282.19;2055249;70;20582;-70
2022/05/27 01:11:31;;;;;;;;;;;;;;;15.85;61.43;93284.06;2055401;70;20064;-71
2022/05/27 01:14:07;;;;;;;;;;;;;;;15.74;62.19;93285.66;2055566;70;20341;-71
2022/05/27 01:16:45;;;;;;;;;;;;;;;15.69;62.61;93281.13;2068560;69;20047;-70
2022/05/27 01:21:54;;;;;;;;;;;;;;;15.52;63.39;93276.69;2055452;70;20050;-71
2022/05/27 01:24:29;;;;;;;;;;;;;;;15.68;62.37;93270.44;2055004;70;20058;-71
2022/05/27 01:30:22;;;;;;;;;;;;;;;15.51;62.87;93272.38;2055580;69;20065;-74
2022/05/27 01:33:07;;;;;;;;;;;;;;;15.52;63.26;93279.53;2055434;70;20488;-71
2022/05/27 01:35:39;;;;;;;;;;;;;;;15.40;63.35;93278.19;2055387;70;20057;-71
2022/05/27 01:38:10;;;;;;;;;;;;;;;15.33;64.23;93282.06;2055573;69;20061;-71
2022/05/27 01:40:47;;;;;;;;;;;;;;;15.45;62.94;93274.91;2055620;70;20054;-71
2022/05/27 01:43:16;;;;;;;;;;;;;;;15.32;63.59;93277.75;2055537;69;20054;-70
2022/05/27 01:45:51;;;;;;;;;;;;;;;15.29;63.78;93276.16;2055436;70;20137;-70
2022/05/27 01:48:26;;;;;;;;;;;;;;;15.29;62.97;93276.91;2055468;69;20058;-71
2022/05/27 01:51:10;;;;;;;;;;;;;;;15.34;62.74;93270.06;2055484;70;20059;-71
2022/05/27 01:53:40;;;;;;;;;;;;;;;15.26;63.44;93272.50;2055289;70;20050;-70
2022/05/27 01:56:18;;;;;;;;;;;;;;;15.15;64.01;93276.16;2055371;70;20123;-71
2022/05/27 01:58:49;;;;;;;;;;;;;;;15.22;62.77;93278.69;2055396;69;20062;-71
2022/05/27 02:01:17;;;;;;;;;;;;;;;15.04;63.97;93280.56;2055346;69;20156;-71
2022/05/27 02:07:15;;;;;;;;;;;;;;;15.07;63.54;93278.56;2055633;69;20142;-72
2022/05/27 02:09:45;;;;;;;;;;;;;;;14.99;64.75;93284.53;2055288;70;20086;-72
2022/05/27 02:12:21;;;;;;;;;;;;;;;15.16;61.99;93274.78;2055553;70;20055;-70
2022/05/27 02:14:53;;;;;;;;;;;;;;;14.32;67.03;93284.41;2055705;69;20052;-70
2022/05/27 02:17:22;;;;;;;;;;;;;;;13.96;69.26;93289.44;2055487;70;20065;-71
2022/05/27 02:19:50;;;;;;;;;;;;;;;14.51;66.28;93291.09;2055217;69;20054;-71
2022/05/27 02:22:17;;;;;;;;;;;;;;;14.64;65.46;93284.75;2055211;69;20054;-71
2022/05/27 02:24:49;;;;;;;;;;;;;;;14.62;65.93;93282.56;2055504;70;20057;-71
2022/05/27 02:27:20;;;;;;;;;;;;;;;14.63;65.32;93275.53;2055581;70;20054;-72
2022/05/27 02:30:01;;;;;;;;;;;;;;;14.71;65.13;93278.81;2055379;70;20054;-71
2022/05/27 02:32:33;;;;;;;;;;;;;;;14.75;64.96;93281.09;2055497;69;20141;-72
2022/05/27 02:35:14;;;;;;;;;;;;;;;14.78;64.53;93273.47;2055051;69;20054;-71
2022/05/27 02:37:40;;;;;;;;;;;;;;;14.82;63.79;93285.75;2055289;69;20074;-72
2022/05/27 02:40:08;;;;;;;;;;;;;;;14.73;65.11;93287.41;2068219;69;20433;-71
2022/05/27 02:42:37;;;;;;;;;;;;;;;14.64;65.78;93290.44;2055703;70;20224;-74
2022/05/27 02:48:49;;;;;;;;;;;;;;;14.51;66.02;93296.78;2055249;69;20505;-71
2022/05/27 02:51:21;;;;;;;;;;;;;;;14.46;65.38;93288.03;2055209;70;20154;-71
2022/05/27 02:53:49;;;;;;;;;;;;;;;14.32;66.41;93292.16;2055317;70;20498;-71
2022/05/27 02:56:18;;;;;;;;;;;;;;;14.37;65.69;93288.19;2055396;70;20050;-72
2022/05/27 02:58:44;;;;;;;;;;;;;;;14.39;65.49;93296.81;2055210;70;20060;-72
2022/05/27 03:01:10;;;;;;;;;;;;;;;14.39;65.54;93291.16;2055400;70;20081;-73
2022/05/27 03:03:36;;;;;;;;;;;;;;;14.45;64.62;93291.47;2055326;70;20421;-71
2022/05/27 03:06:16;;;;;;;;;;;;;;;14.49;64.44;93286.06;2055557;70;20054;-71
2022/05/27 03:09:04;;;;;;;;;;;;;;;14.36;65.67;93278.97;2055365;69;20090;-72
2022/05/27 03:11:35;;;;;;;;;;;;;;;14.35;65.52;93286.00;2055481;70;20077;-71
2022/05/27 03:14:06;;;;;;;;;;;;;;;14.20;66.10;93280.88;2055343;70;20257;-71
2022/05/27 03:16:46;;;;;;;;;;;;;;;14.30;65.92;93289.22;2055150;70;20050;-71
2022/05/27 03:19:30;;;;;;;;;;;;;;;14.32;64.97;93292.91;2055421;69;20043;-72
2022/05/27 03:22:20;;;;;;;;;;;;;;;13.83;68.08;93295.75;2055449;70;20139;-69
2022/05/27 03:24:45;;;;;;;;;;;;;;;13.92;66.82;93294.88;2066547;69;20229;-74
2022/05/27 03:27:26;;;;;;;;;;;;;;;14.24;65.35;93304.50;2055611;70;20149;-73
2022/05/27 03:29:55;;;;;;;;;;;;;;;14.16;65.85;93303.31;2055564;70;20081;-74
2022/05/27 03:32:39;;;;;;;;;;;;;;;14.17;66.01;93305.50;2055557;70;20502;-73
2022/05/27 03:35:17;;;;;;;;;;;;;;;14.01;66.76;93303.84;2068210;69;20042;-73
2022/05/27 03:37:43;;;;;;;;;;;;;;;14.00;66.50;93297.44;2055423;70;20527;-72
2022/05/27 03:40:14;;;;;;;;;;;;;;;14.33;64.38;93294.34;2055253;70;20130;-73
2022/05/27 03:42:40;;;;;;;;;;;;;;;14.12;65.60;93294.59;2055285;69;20495;-74
2022/05/27 03:45:07;;;;;;;;;;;;;;;14.12;65.99;93288.94;2055077;69;20058;-73
2022/05/27 03:47:33;;;;;;;;;;;;;;;14.16;65.19;93286.31;2055523;69;20046;-72
2022/05/27 03:49:59;;;;;;;;;;;;;;;14.04;66.42;93285.63;2055768;70;20104;-75
2022/05/27 03:52:25;;;;;;;;;;;;;;;14.05;67.13;93298.41;2055895;70;20042;-76
2022/05/27 03:54:50;;;;;;;;;;;;;;;14.19;65.29;93299.22;2055919;70;20505;-74
2022/05/27 03:57:16;;;;;;;;;;;;;;;14.18;66.62;93306.97;2056094;70;20116;-72
2022/05/27 03:59:41;;;;;;;;;;;;;;;14.20;65.55;93306.34;2068532;69;20054;-73
2022/05/27 04:02:07;;;;;;;;;;;;;;;14.19;65.44;93316.22;2055879;70;20076;-73
2022/05/27 04:04:32;;;;;;;;;;;;;;;14.10;66.68;93312.19;2068857;69;20483;-73
2022/05/27 04:06:58;;;;;;;;;;;;;;;14.04;66.38;93308.28;2055908;70;20046;-73
2022/05/27 04:09:25;;;;;;;;;;;;;;;14.09;65.77;93310.72;2055808;70;20053;-73
2022/05/27 04:11:50;;;;;;;;;;;;;;;13.89;67.03;93301.78;2055980;70;20073;-74
2022/05/27 04:14:16;;;;;;;;;;;;;;;14.00;65.41;93297.44;2055806;70;20047;-73
2022/05/27 04:16:42;;;;;;;;;;;;;;;13.91;66.80;93298.34;2056056;69;20038;-73
2022/05/27 04:19:08;;;;;;;;;;;;;;;14.02;66.03;93291.16;2068426;69;20107;-73
2022/05/27 04:21:36;;;;;;;;;;;;;;;14.08;65.51;93300.75;2055674;69;20494;-76
2022/05/27 04:24:01;;;;;;;;;;;;;;;13.98;66.92;93295.25;2068720;69;20150;-75
2022/05/27 04:26:27;;;;;;;;;;;;;;;13.99;66.40;93298.81;2055843;70;20486;-74
2022/05/27 04:28:53;;;;;;;;;;;;;;;13.98;66.88;93317.88;2055758;69;20410;-74
2022/05/27 04:31:18;;;;;;;;;;;;;;;14.07;65.69;93312.69;2055868;70;20057;-73
2022/05/27 04:33:44;;;;;;;;;;;;;;;14.23;65.44;93317.19;2055705;70;20053;-73
2022/05/27 04:36:11;;;;;;;;;;;;;;;14.13;66.73;93318.69;2055744;70;20046;-74
2022/05/27 04:38:37;;;;;;;;;;;;;;;13.99;67.38;93316.53;2055819;70;20050;-74
2022/05/27 04:41:03;;;;;;;;;;;;;;;14.06;66.61;93322.53;2055780;70;20051;-73
2022/05/27 04:43:28;;;;;;;;;;;;;;;13.47;68.92;93314.91;2068890;69;20057;-73
2022/05/27 04:45:54;;;;;;;;;;;;;;;13.77;67.48;93306.00;2055793;70;20050;-73
2022/05/27 04:48:19;;;;;;;;;;;;;;;13.92;66.83;93317.50;2055629;69;20055;-73
2022/05/27 04:50:45;;;;;;;;;;;;;;;13.88;67.51;93313.72;2055809;70;20141;-73
2022/05/27 04:53:11;;;;;;;;;;;;;;;13.90;67.44;93305.34;2068838;69;20425;-73
2022/05/27 04:55:37;;;;;;;;;;;;;;;14.03;66.60;93315.28;2055751;69;20054;-76
2022/05/27 04:58:03;;;;;;;;;;;;;;;13.92;66.95;93309.03;2055575;70;20055;-75
2022/05/27 05:00:33;;;;;;;;;;;;;;;13.98;67.91;93312.22;2055514;70;20057;-74
2022/05/27 05:02:59;;;;;;;;;;;;;;;14.06;65.90;93320.44;2068790;69;20391;-73
2022/05/27 05:05:26;;;;;;;;;;;;;;;13.45;71.61;93325.34;2055856;70;20057;-72
2022/05/27 05:07:56;;;;;;;;;;;;;;;13.93;68.62;93321.84;2055902;70;20499;-74
2022/05/27 05:10:22;;;;;;;;;;;;;;;13.69;69.97;93321.13;2056081;70;20042;-74
2022/05/27 05:12:49;;;;;;;;;;;;;;;13.96;67.32;93317.03;2055696;70;20046;-73
2022/05/27 05:15:15;;;;;;;;;;;;;;;14.22;65.17;93315.72;2068641;69;20120;-73
2022/05/27 05:21:09;;;;;;;;;;;;;;;14.08;66.58;93309.25;2055790;69;20501;-73
2022/05/27 05:23:34;;;;;;;;;;;;;;;14.23;65.75;93305.13;2068394;69;20054;-73
2022/05/27 05:26:00;;;;;;;;;;;;;;;14.14;67.09;93294.69;2065736;69;20081;-73
2022/05/27 05:28:25;;;;;;;;;;;;;;;14.07;66.64;93296.44;2055625;70;20549;-73
2022/05/27 05:30:51;;;;;;;;;;;;;;;14.28;64.20;93291.94;2055670;69;20042;-74
2022/05/27 05:33:16;;;;;;;;;;;;;;;14.04;68.61;93291.28;2055584;70;20052;-73
2022/05/27 05:35:42;;;;;;;;;;;;;;;14.13;66.96;93279.78;2055441;70;20064;-74
2022/05/27 05:38:07;;;;;;;;;;;;;;;14.36;65.39;93287.47;2055649;70;20066;-73
2022/05/27 05:40:33;;;;;;;;;;;;;;;14.36;64.87;93298.06;2055613;70;20149;-73
2022/05/27 05:43:00;;;;;;;;;;;;;;;14.33;67.03;93302.13;2055713;70;20054;-77
2022/05/27 05:45:26;;;;;;;;;;;;;;;14.32;67.12;93303.50;2055794;70;20055;-73
2022/05/27 05:47:51;;;;;;;;;;;;;;;14.08;67.98;93314.91;2055541;70;20046;-73
2022/05/27 05:50:18;;;;;;;;;;;;;;;13.99;68.97;93324.28;2055604;69;20058;-73
2022/05/27 05:52:44;;;;;;;;;;;;;;;14.19;67.95;93319.03;2055538;69;20062;-72
2022/05/27 05:55:12;;;;;;;;;;;;;;;14.18;67.57;93301.31;2055563;70;20532;-73
2022/05/27 05:57:39;;;;;;;;;;;;;;;14.24;66.51;93307.31;2055498;69;20103;-73
2022/05/27 06:00:06;;;;;;;;;;;;;;;14.41;65.24;93292.00;2055194;70;20055;-72
2022/05/27 06:02:37;;;;;;;;;;;;;;;14.46;66.74;93293.69;2055609;70;20141;-72
2022/05/27 06:05:03;;;;;;;;;;;;;;;14.44;66.47;93298.50;2055576;70;20141;-74
2022/05/27 06:07:29;;;;;;;;;;;;;;;14.43;67.46;93294.94;2055726;70;20472;-72
2022/05/27 06:09:55;;;;;;;;;;;;;;;14.53;66.48;93289.13;2055546;69;20067;-73
2022/05/27 06:12:23;;;;;;;;;;;;;;;14.56;67.45;93295.63;2068589;69;20066;-72
2022/05/27 06:14:53;;;;;;;;;;;;;;;14.68;63.75;93294.22;2055618;70;20571;-72
2022/05/27 06:17:20;;;;;;;;;;;;;;;14.70;67.49;93285.09;2068584;69;20135;-72
2022/05/27 06:19:45;;;;;;;;;;;;;;;14.78;66.08;93279.88;2068465;69;20050;-74
2022/05/27 06:22:11;;;;;;;;;;;;;;;14.81;67.42;93278.63;2055654;69;20102;-77
2022/05/27 06:24:36;;;;;;;;;;;;;;;14.83;66.37;93272.31;2055641;70;20437;-73
2022/05/27 06:27:04;;;;;;;;;;;;;;;14.76;66.49;93262.75;2055794;70;20085;-74
2022/05/27 06:34:58;;;;;;;;;;;;;;;15.43;64.01;93257.03;2055487;70;20077;-73
2022/05/27 06:37:23;;;;;;;;;;;;;;;15.47;67.53;93246.63;2055614;69;20494;-73
2022/05/27 06:39:49;;;;;;;;;;;;;;;15.56;63.86;93241.38;2055707;70;20496;-72
2022/05/27 06:42:15;;;;;;;;;;;;;;;15.70;64.08;93240.03;2055598;70;20136;-72
2022/05/27 06:44:40;;;;;;;;;;;;;;;15.83;60.87;93232.84;2055257;70;20096;-71
2022/05/27 06:47:07;;;;;;;;;;;;;;;15.97;59.96;93219.38;2055622;70;20475;-72
2022/05/27 06:49:32;;;;;;;;;;;;;;;16.02;62.19;93217.47;2055578;69;20064;-73
2022/05/27 06:51:58;;;;;;;;;;;;;;;16.10;59.34;93215.03;2055676;70;20491;-71
2022/05/27 06:54:23;;;;;;;;;;;;;;;16.24;61.20;93215.69;2055266;70;20046;-71
2022/05/27 06:56:52;;;;;;;;;;;;;;;16.36;63.36;93214.81;2055584;70;20054;-71
2022/05/27 06:59:19;;;;;;;;;;;;;;;16.44;63.26;93210.25;2068580;69;20057;-74
2022/05/27 07:01:45;;;;;;;;;;;;;;;16.54;63.52;93204.31;2055640;69;20535;-77
2022/05/27 07:04:11;;;;;;;;;;;;;;;16.63;63.36;93211.09;2055519;70;20070;-73
2022/05/27 07:06:37;;;;;;;;;;;;;;;16.62;62.95;93209.63;2055723;69;20062;-73
2022/05/27 07:12:32;;;;;;;;;;;;;;;16.82;63.53;93201.34;2055676;69;20130;-72
2022/05/27 07:14:57;;;;;;;;;;;;;;;16.88;63.78;93193.09;2055611;69;20143;-74
2022/05/27 07:17:23;;;;;;;;;;;;;;;16.93;60.83;93201.16;2055431;70;20490;-75
2022/05/27 07:19:48;;;;;;;;;;;;;;;16.94;62.88;93188.41;2055024;70;20158;-72
2022/05/27 07:22:14;;;;;;;;;;;;;;;17.12;66.28;93188.47;2055238;70;20506;-72
2022/05/27 07:24:40;;;;;;;;;;;;;;;17.13;63.03;93187.09;2055568;70;20055;-74
2022/05/27 07:27:06;;;;;;;;;;;;;;;17.25;63.64;93181.94;2055260;69;20153;-74
2022/05/27 07:29:32;;;;;;;;;;;;;;;17.36;61.12;93180.28;2068355;69;20062;-72
2022/05/27 07:31:57;;;;;;;;;;;;;;;17.45;60.87;93169.97;2055506;70;20399;-72
2022/05/27 07:34:23;;;;;;;;;;;;;;;17.64;64.73;93177.16;2055389;70;20465;-73
2022/05/27 07:36:48;;;;;;;;;;;;;;;17.73;66.41;93173.28;2055408;70;20058;-73
2022/05/27 07:39:14;;;;;;;;;;;;;;;17.77;64.84;93179.19;2055110;70;20046;-72
2022/05/27 07:41:39;;;;;;;;;;;;;;;17.92;64.55;93167.00;2055428;70;20061;-72
2022/05/27 07:44:05;;;;;;;;;;;;;;;17.90;60.17;93172.59;2055508;70;20054;-72
2022/05/27 07:46:31;;;;;;;;;;;;;;;18.10;60.83;93172.72;2055529;69;20066;-71
2022/05/27 07:48:57;;;;;;;;;;;;;;;18.16;60.17;93164.41;2055390;69;20172;-74
2022/05/27 07:51:23;;;;;;;;;;;;;;;18.33;60.02;93156.50;2068487;69;20117;-72
2022/05/27 07:53:48;;;;;;;;;;;;;;;18.45;57.71;93154.84;2055619;70;20485;-73
2022/05/27 07:56:13;;;;;;;;;;;;;;;18.89;56.18;93148.69;2055491;70;20119;-75
2022/05/27 07:58:39;;;;;;;;;;;;;;;18.81;55.99;93146.25;2055254;70;20094;-72
2022/05/27 08:01:05;;;;;;;;;;;;;;;19.27;56.89;93132.22;2055239;70;20054;-72
2022/05/27 08:03:31;;;;;;;;;;;;;;;19.46;56.65;93122.91;2055374;70;20082;-72
2022/05/27 08:05:57;;;;;;;;;;;;;;;19.78;57.74;93116.84;2055459;70;20479;-72
2022/05/27 08:08:23;;;;;;;;;;;;;;;20.52;53.80;93103.50;2055359;70;20108;-72
2022/05/27 08:10:49;;;;;;;;;;;;;;;20.72;53.38;93111.97;2055381;70;20054;-73
2022/05/27 08:13:14;;;;;;;;;;;;;;;21.20;51.77;93108.31;2055527;70;20050;-72
2022/05/27 08:15:40;;;;;;;;;;;;;;;21.66;49.59;93119.59;2055383;70;20146;-72
2022/05/27 08:18:05;;;;;;;;;;;;;;;21.64;50.35;93117.41;2055230;70;20057;-73
2022/05/27 08:20:33;;;;;;;;;;;;;;;21.87;51.56;93118.00;2054934;70;20074;-73
2022/05/27 08:23:00;;;;;;;;;;;;;;;22.43;48.02;93118.66;2055286;70;20049;-74
2022/05/27 08:25:25;;;;;;;;;;;;;;;22.27;48.00;93118.31;2055292;70;20054;-73
2022/05/27 08:27:51;;;;;;;;;;;;;;;22.13;47.71;93112.19;2055239;70;20058;-74
2022/05/27 08:30:23;;;;;;;;;;;;;;;22.76;46.68;93113.66;2055285;69;20044;-74
2022/05/27 08:32:49;;;;;;;;;;;;;;;23.47;46.12;93118.03;2055398;70;20070;-75
2022/05/27 08:38:01;;;;;;;;;;;;;;;23.70;42.81;93115.63;2055903;70;20541;-74
2022/05/27 08:40:38;;;;;;;;;;;;;;;24.03;44.25;93103.25;2069085;69;20145;-74
2022/05/27 08:43:04;;;;;;;;;;;;;;;24.04;43.42;93110.47;2055918;70;20050;-73
2022/05/27 08:45:32;;;;;;;;;;;;;;;24.04;44.08;93101.84;2056138;70;20153;-74
2022/05/27 08:47:59;;;;;;;;;;;;;;;24.48;43.87;93103.28;2068867;69;20054;-72
2022/05/27 08:50:42;;;;;;;;;;;;;;;24.26;42.53;93097.88;2056311;70;20046;-72
2022/05/27 08:53:07;;;;;;;;;;;;;;;25.03;43.42;93084.63;2055808;70;20059;-73
2022/05/27 09:01:14;;;;;;;;;;;;;;;25.09;40.78;93078.25;2055970;70;20142;-74
2022/05/27 09:03:43;;;;;;;;;;;;;;;25.72;42.01;93073.19;2055863;70;20145;-74
2022/05/27 09:06:10;;;;;;;;;;;;;;;25.94;41.03;93069.09;2068846;69;20054;-75
2022/05/27 09:08:36;;;;;;;;;;;;;;;25.93;41.09;93077.00;2055785;70;20061;-76
2022/05/27 09:11:01;;;;;;;;;;;;;;;25.88;41.26;93074.81;2056039;70;20070;-74
2022/05/27 09:13:34;;;;;;;;;;;;;;;25.70;40.29;93073.16;2055888;70;20050;-74
2022/05/27 09:16:16;;;;;;;;;;;;;;;26.26;40.97;93069.38;2056037;70;20168;-72
2022/05/27 09:18:42;;;;;;;;;;;;;;;26.96;40.88;93076.38;2055955;69;20131;-73
2022/05/27 09:21:16;;;;;;;;;;;;;;;27.04;40.27;93064.84;2055898;70;20495;-73
2022/05/27 09:23:48;;;;;;;;;;;;;;;27.09;38.61;93060.56;2055918;69;20050;-74
2022/05/27 09:26:18;;;;;;;;;;;;;;;27.02;37.57;93058.31;2055836;69;20111;-74
2022/05/27 09:28:47;;;;;;;;;;;;;;;26.91;37.62;93056.84;2055759;70;20058;-79
2022/05/27 09:31:14;;;;;;;;;;;;;;;27.00;38.15;93047.50;2055532;70;20177;-78
2022/05/27 09:33:41;;;;;;;;;;;;;;;27.24;36.54;93046.19;2055754;70;20061;-76
2022/05/27 09:36:30;;;;;;;;;;;;;;;26.98;37.51;93038.81;2055755;70;20054;-74
2022/05/27 09:39:00;;;;;;;;;;;;;;;27.05;37.73;93034.50;2055915;69;20042;-76
2022/05/27 09:41:46;;;;;;;;;;;;;;;26.63;37.82;93040.09;2055734;70;20475;-74
2022/05/27 09:44:17;;;;;;;;;;;;;;;27.01;38.08;93031.59;2068893;69;20066;-75
2022/05/27 09:46:43;;;;;;;;;;;;;;;27.94;37.14;93029.72;2055755;70;20053;-76
2022/05/27 09:49:09;;;;;;;;;;;;;;;28.19;35.19;93021.81;2055824;70;20047;-79
2022/05/27 09:51:34;;;;;;;;;;;;;;;28.36;37.89;93015.31;2055783;70;20086;-79
2022/05/27 09:54:09;;;;;;;;;;;;;;;28.72;35.89;93013.78;2055932;69;20434;-77
2022/05/27 09:56:37;;;;;;;;;;;;;;;29.16;36.40;93005.72;2055795;70;20167;-76
2022/05/27 09:59:29;;;;;;;;;;;;;;;28.83;36.08;93009.41;2055450;69;20058;-77
2022/05/27 10:02:13;;;;;;;;;;;;;;;29.45;34.86;93015.00;2057783;69;20062;-77
2022/05/27 10:04:48;;;;;;;;;;;;;;;29.60;33.05;93004.81;2054943;69;20195;-77
2022/05/27 10:07:13;;;;;;;;;;;;;;;30.26;32.03;93005.06;2054764;69;20120;-76
2022/05/27 10:09:39;;;;;;;;;;;;;;;29.33;33.80;92998.38;2057855;69;20047;-76
2022/05/27 10:12:05;;;;;;;;;;;;;;;29.73;33.62;92999.63;2057891;69;20528;-76
2022/05/27 10:14:33;;;;;;;;;;;;;;;29.79;32.90;92990.91;2057561;69;20143;-77
2022/05/27 10:17:01;;;;;;;;;;;;;;;30.06;31.29;92979.81;2057717;69;20483;-78
2022/05/27 10:19:26;;;;;;;;;;;;;;;30.20;29.77;92979.00;2057631;69;20049;-78
2022/05/27 10:21:53;;;;;;;;;;;;;;;30.76;31.79;92983.56;2057817;69;20058;-78
2022/05/27 10:24:23;;;;;;;;;;;;;;;31.40;30.27;92980.66;2057703;69;20054;-78
2022/05/27 10:27:03;;;;;;;;;;;;;;;30.94;30.46;92973.91;2057708;69;20053;-75
2022/05/27 10:29:28;;;;;;;;;;;;;;;31.76;30.01;92967.06;2057324;69;20565;-75
2022/05/27 10:31:55;;;;;;;;;;;;;;;31.61;28.11;92957.78;2057831;69;20046;-78
2022/05/27 10:34:41;;;;;;;;;;;;;;;32.58;28.91;92957.75;2057720;69;20150;-77
2022/05/27 10:37:12;;;;;;;;;;;;;;;32.10;30.12;92954.88;2059146;69;20100;-75
2022/05/27 10:40:01;;;;;;;;;;;;;;;33.45;29.37;92957.53;2056390;69;20050;-82
2022/05/27 10:42:50;;;;;;;;;;;;;;;33.49;27.98;92949.41;2055787;70;20061;-76
2022/05/27 10:45:16;;;;;;;;;;;;;;;34.24;26.21;92944.06;2055731;70;20058;-76
2022/05/27 10:47:52;;;;;;;;;;;;;;;36.01;25.86;92944.28;2055638;70;20053;-76
2022/05/27 10:50:24;;;;;;;;;;;;;;;35.83;25.24;92933.84;2055577;70;20436;-77
2022/05/27 10:56:18;;;;;;;;;;;;;;;38.26;22.46;92939.94;2055615;70;20515;-76
2022/05/27 11:02:04;;;;;;;;;;;;;;;43.31;18.65;92936.13;2055697;70;20038;-78
2022/05/27 11:04:33;;;;;;;;;;;;;;;45.07;17.63;92928.63;2055582;70;20059;-81
2022/05/27 11:07:15;;;;;;;;;;;;;;;42.50;18.57;92923.84;2068568;69;20058;-76
2022/05/27 11:09:59;;;;;;;;;;;;;;;45.78;16.82;92932.66;2055775;70;20433;-79
2022/05/27 11:15:33;;;;;;;;;;;;;;;47.85;14.18;92921.72;2054865;70;20054;-75
2022/05/27 11:17:58;;;;;;;;;;;;;;;48.51;14.34;92916.50;2055035;70;20065;-77
2022/05/27 11:20:30;;;;;;;;;;;;;;;49.10;14.46;92917.63;2055256;70;20042;-72
2022/05/27 11:23:11;;;;;;;;;;;;;;;49.16;13.87;92908.13;2055058;69;20201;-72
2022/05/27 11:29:10;;;;;;;;;;;;;;;44.86;14.43;92885.47;2055181;69;20557;-73
2022/05/27 11:35:09;;;;;;;;;;;;;;;48.98;12.45;92891.72;2055346;69;20128;-75
2022/05/27 11:37:40;;;;;;;;;;;;;;;49.55;11.59;92880.94;2055625;69;20078;-73
2022/05/27 11:40:17;;;;;;;;;;;;;;;47.94;11.48;92877.03;2055574;70;20053;-76
2022/05/27 11:42:55;;;;;;;;;;;;;;;49.28;11.75;92879.50;2055522;70;20086;-76
2022/05/27 11:45:24;;;;;;;;;;;;;;;49.38;11.36;92872.63;2055476;70;20057;-72
2022/05/27 11:51:23;;;;;;;;;;;;;;;49.30;11.06;92855.38;2055160;69;20042;-71
2022/05/27 11:53:51;;;;;;;;;;;;;;;47.26;13.20;92860.03;2055463;70;20077;-71
2022/05/27 11:56:36;;;;;;;;;;;;;;;52.04;10.81;92864.19;2055488;70;20565;-72
2022/05/27 12:02:38;;;;;;;;;;;;;;;49.80;10.66;92843.59;2055426;69;20417;-74
2022/05/27 12:05:12;;;;;;;;;;;;;;;46.60;10.04;92837.47;2055311;69;20150;-75
2022/05/27 12:07:48;;;;;;;;;;;;;;;47.19;10.71;92829.28;2055423;69;20054;-73
2022/05/27 12:10:23;;;;;;;;;;;;;;;49.04;10.81;92834.44;2056070;69;20046;-73
2022/05/27 12:12:55;;;;;;;;;;;;;;;51.71;9.61;92830.63;2055922;70;20490;-73
2022/05/27 12:15:28;;;;;;;;;;;;;;;50.46;9.22;92835.50;2055931;70;20492;-77
2022/05/27 12:17:54;;;;;;;;;;;;;;;50.18;10.13;92823.84;2055672;69;20145;-78
2022/05/27 12:20:22;;;;;;;;;;;;;;;52.06;9.79;92828.00;2055695;69;20058;-76
2022/05/27 12:22:49;;;;;;;;;;;;;;;48.91;10.14;92813.16;2056425;69;20042;-77
2022/05/27 12:25:20;;;;;;;;;;;;;;;49.54;9.65;92805.47;2069915;69;20065;-76
2022/05/27 12:27:46;;;;;;;;;;;;;;;47.34;11.54;92799.81;2069271;69;20058;-76
2022/05/27 12:30:13;;;;;;;;;;;;;;;44.77;11.94;92782.94;2056074;70;20452;-76
2022/05/27 12:32:41;;;;;;;;;;;;;;;43.55;14.17;92771.66;2055931;70;20058;-76
2022/05/27 12:35:21;;;;;;;;;;;;;;;40.51;15.64;92761.81;2055805;70;20086;-76
2022/05/27 12:37:48;;;;;;;;;;;;;;;40.41;14.79;92763.03;2055923;69;20058;-75
2022/05/27 12:40:21;;;;;;;;;;;;;;;40.20;14.90;92757.50;2069048;69;20051;-77
2022/05/27 12:42:52;;;;;;;;;;;;;;;38.85;17.12;92754.38;2056042;70;20486;-76
2022/05/27 12:45:18;;;;;;;;;;;;;;;37.82;17.00;92757.34;2055895;70;20072;-77
2022/05/27 12:47:45;;;;;;;;;;;;;;;38.87;17.87;92742.53;2055868;70;20530;-75
2022/05/27 12:50:15;;;;;;;;;;;;;;;38.44;15.85;92740.78;2068828;69;20149;-78
2022/05/27 12:52:43;;;;;;;;;;;;;;;36.88;18.25;92743.41;2055888;70;20042;-75
2022/05/27 12:55:13;;;;;;;;;;;;;;;36.20;19.51;92723.91;2055848;69;20054;-75
2022/05/27 13:03:31;;;;;;;;;;;;;;;36.27;17.89;92710.50;2055766;70;20054;-78
2022/05/27 13:06:07;;;;;;;;;;;;;;;35.21;18.57;92714.78;2056122;70;20513;-78
2022/05/27 13:08:43;;;;;;;;;;;;;;;35.13;19.10;92706.97;2055780;70;20057;-79
2022/05/27 13:11:20;;;;;;;;;;;;;;;33.75;19.81;92713.88;2055944;70;20062;-77
2022/05/27 13:13:49;;;;;;;;;;;;;;;33.80;19.45;92715.19;2055805;70;20101;-77
2022/05/27 13:16:33;;;;;;;;;;;;;;;34.44;20.54;92723.66;2055951;70;20050;-77
2022/05/27 13:19:01;;;;;;;;;;;;;;;33.99;19.65;92707.38;2055712;70;20042;-76
2022/05/27 13:21:27;;;;;;;;;;;;;;;33.41;18.30;92718.38;2055740;69;20149;-75
2022/05/27 13:24:00;;;;;;;;;;;;;;;32.59;19.95;92702.78;2055809;70;20204;-78
2022/05/27 13:26:46;;;;;;;;;;;;;;;32.89;20.63;92699.13;2055958;69;20054;-76
2022/05/27 13:29:24;;;;;;;;;;;;;;;33.14;19.85;92701.53;2056768;69;20074;-75
2022/05/27 13:35:19;;;;;;;;;;;;;;;32.18;20.94;92697.78;2055752;69;20057;-75
2022/05/27 13:37:51;;;;;;;;;;;;;;;31.75;20.00;92695.69;2055747;69;20433;-77
2022/05/27 13:40:35;;;;;;;;;;;;;;;31.51;20.47;92688.13;2055769;70;20532;-76
2022/05/27 13:43:14;;;;;;;;;;;;;;;31.58;20.39;92694.56;2055893;69;20050;-74
2022/05/27 13:46:09;;;;;;;;;;;;;;;32.19;21.24;92681.75;2055894;70;20493;-75
2022/05/27 13:48:37;;;;;;;;;;;;;;;32.10;21.82;92684.09;2057504;69;20050;-75
2022/05/27 13:51:07;;;;;;;;;;;;;;;30.64;20.39;92676.44;2068818;69;20050;-76
2022/05/27 13:53:39;;;;;;;;;;;;;;;30.75;21.24;92679.94;2055932;69;20046;-77
2022/05/27 13:56:12;;;;;;;;;;;;;;;31.26;20.01;92682.00;2068774;69;20054;-75
2022/05/27 13:58:47;;;;;;;;;;;;;;;31.14;20.85;92670.59;2055726;70;20050;-76
2022/05/27 14:01:13;;;;;;;;;;;;;;;31.12;21.04;92665.53;2055702;70;20164;-78
2022/05/27 14:03:41;;;;;;;;;;;;;;;30.86;20.47;92671.78;2055610;69;20082;-76
2022/05/27 14:06:09;;;;;;;;;;;;;;;30.76;20.87;92660.31;2055674;69;20050;-76
2022/05/27 14:08:35;;;;;;;;;;;;;;;30.95;21.82;92670.16;2068678;69;20050;-74
2022/05/27 14:11:06;;;;;;;;;;;;;;;30.57;21.19;92671.47;2068673;69;20490;-75
2022/05/27 14:13:32;;;;;;;;;;;;;;;30.53;21.78;92680.97;2056166;69;20177;-75